Terminal Aerodrome Forecast
Issued by NWS Jackson, KY

Home | Current Version | Previous Version | Text Only | Print | Product List | Glossary On
Versions: 1 2 3 4 5 6 7 8 9 10 11 12 13 14 15 16 17 18 19 20 21
000
FTUS43 KJKL 161100 RRA
TAFJKL
TAF
KJKL 161140Z 1612/1712 00000KT 2SM BR VCSH BKN010 OVC019
     FM161300 VRB03KT 5SM BR VCSH OVC008
     FM161600 VRB03KT P6SM BKN022
     FM162100 00000KT P6SM BKN035
     FM170600 00000KT 2SM BR SCT001=

USA.gov is the U.S. government's official web portal to all federal, state and local government web resources and services.